Loris, SC (29569)

00:48 EDT le 22 octobre 2014 (GMT -0400)
HWY 9 BUS. WEST. | Change Station
CLOSE
Current Station
Stations météorologiques personnelles
Location: Loris, SC
Altitude: 99 ft
Stations météo à proximité

Alt. 99 ft 34.07 °N, 78.91 °W | Updated 3 seconds ago

Partiellement nuageux
Partiellement nuageux
60.6 ° F
Paraît 60.6 ° F
N
0.0
Vent Variable Vent de Nord
Gusts 0.0 mph

Aujourd'hui
Haut(e) -- | Bas -- ° F
--% Risque de précip.
Hier
Haut(e) -- | Bas -- ° F
Precip. -- pouce
7:26 AM 6:33 PM
Lune descendante, 3% visible
Pression 29.92 pouce
Visibilité 7.0 Miles terrestres
Nuages Ciel dégagé
Point de rosée 50 ° F
Humidité 69%
Précipitations 0.00 pouce
Profondeur de la couche neigeuse Non disponible.
UV 0 sur 12
Pollen 3.70 sur 12
Qualité de l'air Non disponible.
Flu Activity Sporadic
METAR KHYW 220435Z AUTO 00000KT 7SM CLR 15/11 A2992 RMK AO2

More Conditions Fewer Conditions

Pression 29.92 pouce
Visibilité 7.0 Miles terrestres
Nuages Ciel dégagé
Point de rosée 50 ° F
Humidité 69%
Précipitations 0.00 pouce
Profondeur de la couche neigeuse Non disponible.
UV 0 sur 12
Pollen 3.70 sur 12
Qualité de l'air Non disponible.
Flu Activity Sporadic
METAR KHYW 220435Z AUTO 00000KT 7SM CLR 15/11 A2992 RMK AO2

More Conditions Fewer Conditions

10-Day Weather Forecast

Almanac

Astronomie

Oct. 22, 2014 Lever Coucher
Temps réel 07:26 EDT 18:33 EDT
Crépuscule civil 07:01 EDT 18:58 EDT
Crépuscule nautique 06:31 EDT 19:27 EDT
Crépuscule astronomique 06:02 EDT 19:56 EDT
Lune 06:09 EDT 17:56 EDT
Durée de lumière visible 11h 57m
Longueur du jour
11h 06m
Tomorrow will be 1m 59s shorter.
Lune descendante, 3% of the Moon is Illuminated
Aujourd'hui
Lune descendante
Oct 23
Nouveau
Oct 30
Premier quartier
Nov 6
Pleine lune
Nov 14
Dernier quartier

Extrêmes aujourd'hui

State Highs State Lows

Community

WunderPhotos

Upload Photos

1,763,882 Photos téléchargées !

Nearby

Épaisseur de neige

Station Depth Altitude
Pas de nouvelles chutes de neige

Activité sismique

Ville Distance Mag. Time & Date
No recent earthquake activity has been reported nearby.
Minimum magnitude displayed is 2.5.

Températures des eaux côtières

Lieu Température
Springmaid Pier, SC 72.0 ° F

Stations météo à proximité